Terminal Aerodrome Forecast
Issued by NWS

Home | Current Version | Previous Version | Text Only | Print | Product List | Glossary On
Versions: 1 2 3 4 5 6 7 8 9 10 11 12 13 14 15 16 17 18 19 20 21 22 23 24 25 26 27 28 29
000
FTUS45 KSLC 201127
TAFOGD
TAF
KOGD 201127Z 2012/2112 17005KT 6SM -RA BR BKN030
      TEMPO 2012/2014 BKN035
     FM201700 17005KT P6SM VCSH SCT020 BKN040
     FM210900 17010KT 6SM -RASN SCT010 BKN035=

USA.gov is the U.S. government's official web portal to all federal, state and local government web resources and services.